Time;durP1;ratioP1;P1;durP2;ratioP2;P2;SDS_P1;SDS_P2;PMS_P1;PMS_P2;Temp;Humidity;BMP_temperature;BMP_pressure;BME280_temperature;BME280_humidity;BME280_pressure;Samples;Min_cycle;Max_cycle;Signal;HPM_P1;HPM_P2
2022/09/18 00:02:17;;;;;;;1.05;0.35;;;;;;;11.71;59.99;100672.34;5056531;28;20120;-56
2022/09/18 00:04:44;;;;;;;1.98;0.40;;;;;;;11.72;59.28;100674.06;5059235;28;20072;-51
2022/09/18 00:07:10;;;;;;;2.10;0.30;;;;;;;11.77;59.77;100679.28;5068189;28;20128;-52
2022/09/18 00:09:37;;;;;;;0.50;0.20;;;;;;;11.76;59.35;100678.41;5056101;28;20527;-55
2022/09/18 00:12:04;;;;;;;1.67;0.30;;;;;;;11.77;58.83;100674.97;5059573;28;20049;-54
2022/09/18 00:14:30;;;;;;;1.08;0.50;;;;;;;11.77;59.23;100677.56;5068145;28;20604;-46
2022/09/18 00:16:57;;;;;;;1.40;0.40;;;;;;;11.77;58.63;100680.16;5053773;28;20048;-51
2022/09/18 00:19:23;;;;;;;2.05;1.05;;;;;;;11.77;58.77;100674.97;5062355;28;20127;-48
2022/09/18 00:21:50;;;;;;;2.35;0.50;;;;;;;11.77;58.70;100669.78;5084125;28;20142;-50
2022/09/18 00:24:18;;;;;;;1.42;0.50;;;;;;;11.77;59.80;100674.97;5076130;28;20054;-51
2022/09/18 00:26:45;;;;;;;1.52;0.40;;;;;;;11.76;59.67;100678.41;5065800;28;20054;-52
2022/09/18 00:29:13;;;;;;;2.30;1.17;;;;;;;11.77;59.08;100679.28;5065658;28;20380;-48
2022/09/18 00:31:41;;;;;;;1.85;0.40;;;;;;;11.77;59.50;100677.56;5066501;28;20094;-53
2022/09/18 00:34:11;;;;;;;3.00;0.77;;;;;;;11.77;59.94;100677.56;5065781;28;20052;-55
2022/09/18 00:36:38;;;;;;;4.15;0.52;;;;;;;11.77;59.68;100669.78;5062156;28;20048;-51
2022/09/18 00:39:06;;;;;;;3.40;0.45;;;;;;;11.77;59.13;100669.78;5051982;28;20159;-53
2022/09/18 00:41:36;;;;;;;1.35;0.50;;;;;;;11.78;60.03;100674.09;5065703;28;20131;-47
2022/09/18 00:44:28;;;;;;;2.38;0.70;;;;;;;11.73;59.43;100675.81;5059126;28;20769;-52
2022/09/18 00:47:03;;;;;;;2.08;0.70;;;;;;;11.76;60.05;100681.00;5054061;28;20053;-57
2022/09/18 00:49:30;;;;;;;4.20;0.45;;;;;;;11.77;60.13;100668.91;5059541;28;20071;-50
2022/09/18 00:52:00;;;;;;;1.77;0.40;;;;;;;11.78;59.24;100670.63;5063979;28;20567;-53
2022/09/18 00:54:33;;;;;;;2.60;1.02;;;;;;;11.79;59.62;100672.38;5060984;28;20064;-53
2022/09/18 00:57:05;;;;;;;2.22;0.40;;;;;;;11.81;60.13;100663.72;5060346;28;20099;-49
2022/09/18 00:59:33;;;;;;;4.10;0.63;;;;;;;11.81;59.38;100666.31;5052896;28;20503;-53
2022/09/18 01:02:00;;;;;;;2.85;0.50;;;;;;;11.82;59.81;100669.75;5056108;28;20049;-51
2022/09/18 01:04:28;;;;;;;1.65;0.50;;;;;;;11.82;59.43;100665.44;5056568;28;20132;-50
2022/09/18 01:16:25;;;;;;;3.15;0.98;;;;;;;12.12;60.38;100664.66;5024269;27;20406;-50
2022/09/18 01:19:31;;;;;;;1.55;0.90;;;;;;;11.88;61.45;100666.31;5022748;28;21221;-50
2022/09/18 01:24:49;;;;;;;2.47;0.63;;;;;;;11.88;60.77;100668.91;5033619;27;20398;-53
2022/09/18 01:27:29;;;;;;;1.42;0.40;;;;;;;11.90;60.24;100669.78;5022056;28;20046;-49
2022/09/18 01:30:06;;;;;;;1.90;0.55;;;;;;;11.91;60.59;100666.31;5025019;28;20054;-53
2022/09/18 01:32:47;;;;;;;3.22;0.70;;;;;;;11.88;61.18;100661.13;5021686;28;20069;-51
2022/09/18 01:38:07;;;;;;;0.82;0.50;;;;;;;11.91;60.06;100642.97;5059978;27;20383;-51
2022/09/18 01:40:40;;;;;;;1.67;0.35;;;;;;;11.89;61.67;100639.50;5023714;28;20073;-50
2022/09/18 01:43:10;;;;;;;0.80;0.20;;;;;;;11.91;60.96;100629.97;5018806;28;20394;-52
2022/09/18 01:45:43;;;;;;;1.30;0.35;;;;;;;11.90;60.89;100649.91;5019448;28;20065;-54
2022/09/18 01:48:15;;;;;;;2.05;0.50;;;;;;;11.88;60.79;100640.34;5020650;28;20054;-50
2022/09/18 01:50:50;;;;;;;1.42;0.70;;;;;;;11.83;60.78;100633.44;5020600;28;20084;-51
2022/09/18 01:53:23;;;;;;;1.40;0.60;;;;;;;11.82;60.58;100626.50;5022550;28;20128;-53
2022/09/18 01:56:00;;;;;;;1.77;0.82;;;;;;;11.78;60.98;100635.16;5024617;28;20056;-50
2022/09/18 01:58:29;;;;;;;1.30;0.93;;;;;;;11.72;61.27;100632.53;5024385;28;20081;-52
2022/09/18 02:01:00;;;;;;;1.13;0.35;;;;;;;11.69;61.18;100624.78;5022962;28;20049;-47
2022/09/18 02:03:31;;;;;;;3.17;1.10;;;;;;;11.65;60.36;100628.22;5010091;28;20133;-49
2022/09/18 02:06:05;;;;;;;3.38;0.85;;;;;;;11.61;60.99;100632.53;5003991;28;20133;-49
2022/09/18 02:08:40;;;;;;;1.83;0.55;;;;;;;11.56;61.24;100632.50;5006043;28;20054;-52
2022/09/18 02:11:11;;;;;;;2.45;0.63;;;;;;;11.55;61.03;100638.56;5001170;28;20046;-48
2022/09/18 02:13:45;;;;;;;1.20;0.65;;;;;;;11.54;61.04;100636.84;5004432;28;20042;-52
2022/09/18 02:16:22;;;;;;;0.80;0.30;;;;;;;11.55;60.85;100629.94;5004828;28;20077;-48
2022/09/18 02:18:52;;;;;;;4.25;0.98;;;;;;;11.56;61.07;100632.50;5004890;28;20868;-49
2022/09/18 02:21:25;;;;;;;1.70;0.70;;;;;;;11.59;61.31;100633.41;5005514;28;20046;-49
2022/09/18 02:23:56;;;;;;;2.85;1.02;;;;;;;11.60;61.29;100629.94;5004026;28;20129;-50
2022/09/18 02:26:23;;;;;;;6.65;1.23;;;;;;;11.61;62.00;100626.47;5002191;28;20212;-52
2022/09/18 02:28:50;;;;;;;3.65;0.75;;;;;;;11.63;61.14;100619.56;5005509;28;20050;-53
2022/09/18 02:31:17;;;;;;;2.28;0.47;;;;;;;11.63;61.24;100624.75;5004927;28;20046;-45
2022/09/18 02:33:44;;;;;;;1.75;0.75;;;;;;;11.64;60.79;100621.28;5001818;28;20068;-51
2022/09/18 02:47:12;;;;;;;1.83;0.65;;;;;;;11.74;61.39;100612.66;5081299;27;20379;-52
2022/09/18 02:52:47;;;;;;;1.42;0.65;;;;;;;11.58;61.71;100606.56;5023726;27;20402;-50
2022/09/18 02:55:20;;;;;;;3.45;0.55;;;;;;;11.55;61.82;100602.25;5022931;28;20065;-48
2022/09/18 02:58:08;;;;;;;2.35;0.65;;;;;;;11.44;62.15;100603.94;5024079;28;20046;-51
2022/09/18 03:00:35;;;;;;;3.85;2.10;;;;;;;11.44;62.12;100601.34;5015838;28;20628;-50
2022/09/18 03:03:01;;;;;;;2.63;0.85;;;;;;;11.39;61.62;100601.34;5023450;28;20135;-50
2022/09/18 03:05:28;;;;;;;3.00;0.55;;;;;;;11.35;62.33;100596.16;5019534;28;20413;-49
2022/09/18 03:07:55;;;;;;;1.75;0.63;;;;;;;11.31;61.56;100598.72;5019143;28;20080;-49
2022/09/18 03:10:21;;;;;;;2.53;0.77;;;;;;;11.28;61.50;100603.91;5022834;28;20129;-51
2022/09/18 03:12:48;;;;;;;1.98;0.95;;;;;;;11.25;62.28;100601.28;5015469;28;20141;-50
2022/09/18 03:15:14;;;;;;;1.70;0.75;;;;;;;11.21;61.75;100604.75;5020764;28;20685;-51
2022/09/18 03:17:41;;;;;;;2.88;0.50;;;;;;;11.17;62.62;100600.41;5016448;28;20140;-52
2022/09/18 03:20:08;;;;;;;2.15;0.73;;;;;;;11.13;61.76;100603.84;5016924;28;20141;-50
2022/09/18 03:22:34;;;;;;;2.65;1.25;;;;;;;11.11;62.46;100600.41;5021079;28;20048;-49
2022/09/18 03:25:01;;;;;;;2.38;0.63;;;;;;;11.05;62.61;100596.91;5024099;28;20049;-54
2022/09/18 03:27:28;;;;;;;2.70;0.70;;;;;;;11.03;62.36;100593.47;5014899;28;20080;-51
2022/09/18 03:29:54;;;;;;;1.85;0.47;;;;;;;11.01;62.96;100595.16;5017248;28;20137;-51
2022/09/18 03:32:21;;;;;;;1.75;0.75;;;;;;;10.98;62.50;100595.13;5022622;28;20084;-55
2022/09/18 03:34:47;;;;;;;1.85;0.73;;;;;;;10.95;62.28;100589.09;5018569;28;20160;-55
2022/09/18 03:37:14;;;;;;;6.22;0.73;;;;;;;10.92;62.92;100595.13;5018291;28;20045;-48
2022/09/18 03:39:41;;;;;;;2.58;0.55;;;;;;;10.89;62.13;100583.03;5013214;28;20096;-50
2022/09/18 03:42:07;;;;;;;2.80;0.90;;;;;;;10.86;62.92;100585.59;5010841;28;20059;-53
2022/09/18 03:44:34;;;;;;;1.90;0.75;;;;;;;10.84;62.67;100581.28;5023687;28;20088;-48
2022/09/18 03:47:00;;;;;;;1.50;0.43;;;;;;;10.80;62.77;100586.44;5018937;28;20081;-50
2022/09/18 03:49:27;;;;;;;3.13;0.98;;;;;;;10.79;62.46;100589.03;5019907;28;20140;-50
2022/09/18 03:51:53;;;;;;;1.60;0.60;;;;;;;10.76;62.69;100589.88;5020160;28;20037;-46
2022/09/18 03:54:20;;;;;;;4.07;0.68;;;;;;;10.75;62.52;100592.44;5018233;28;20125;-50
2022/09/18 03:56:47;;;;;;;3.10;0.77;;;;;;;10.73;62.54;100596.75;5019784;28;20073;-55
2022/09/18 03:59:14;;;;;;;2.28;0.40;;;;;;;10.70;62.85;100584.66;5011659;28;20061;-54
2022/09/18 04:01:40;;;;;;;3.35;0.63;;;;;;;10.67;63.23;100589.81;5014484;28;20073;-54
2022/09/18 04:04:08;;;;;;;1.73;0.73;;;;;;;10.66;62.44;100594.16;4999778;28;20056;-49
2022/09/18 04:06:34;;;;;;;2.60;1.08;;;;;;;10.65;63.22;100586.34;4998536;28;20137;-50
2022/09/18 04:09:01;;;;;;;1.10;0.43;;;;;;;10.65;63.25;100591.53;4999914;28;20164;-52
2022/09/18 04:11:28;;;;;;;2.65;0.68;;;;;;;10.64;62.72;100598.44;5004664;28;20109;-51
2022/09/18 04:13:54;;;;;;;1.85;0.60;;;;;;;10.64;63.10;100589.81;5001315;28;20080;-54
2022/09/18 04:16:21;;;;;;;2.65;0.88;;;;;;;10.63;62.91;100595.81;5001868;28;20141;-51
2022/09/18 04:18:48;;;;;;;2.33;0.57;;;;;;;10.63;63.13;100593.25;5009997;28;20087;-54
2022/09/18 04:21:14;;;;;;;2.58;0.70;;;;;;;10.61;63.00;100594.97;5007747;28;20380;-53
2022/09/18 04:23:41;;;;;;;1.58;0.60;;;;;;;10.62;62.90;100600.16;5002866;28;20498;-50
2022/09/18 04:26:09;;;;;;;3.05;0.80;;;;;;;10.61;63.18;100601.00;4998849;28;20140;-55
2022/09/18 04:28:36;;;;;;;2.90;0.50;;;;;;;10.60;63.84;100593.25;4998564;28;20057;-48
2022/09/18 04:31:03;;;;;;;2.58;0.68;;;;;;;10.58;63.82;100590.66;5006393;28;20541;-51
2022/09/18 04:33:29;;;;;;;1.20;0.77;;;;;;;10.60;63.83;100596.69;5001252;28;20053;-52
2022/09/18 04:35:56;;;;;;;5.40;0.63;;;;;;;10.59;63.68;100594.09;5005425;28;20073;-53
2022/09/18 04:38:26;;;;;;;2.95;0.90;;;;;;;10.58;63.77;100595.81;4996652;28;20149;-51
2022/09/18 04:40:55;;;;;;;1.10;0.55;;;;;;;10.59;64.12;100587.19;5004373;28;20053;-54
2022/09/18 04:43:22;;;;;;;1.67;0.65;;;;;;;10.61;63.32;100592.38;5004302;28;20046;-55
2022/09/18 04:45:49;;;;;;;1.80;0.68;;;;;;;10.59;63.18;100591.50;5005797;28;20056;-52
2022/09/18 04:48:17;;;;;;;1.25;0.50;;;;;;;10.60;62.89;100582.88;5004484;28;20504;-53
2022/09/18 04:50:45;;;;;;;1.48;0.63;;;;;;;10.59;63.51;100591.50;5003230;28;20506;-49
2022/09/18 04:53:13;;;;;;;5.72;0.63;;;;;;;10.58;63.68;100589.75;5007797;28;20141;-45
2022/09/18 04:55:42;;;;;;;1.50;0.65;;;;;;;10.58;63.28;100592.34;5001021;28;20497;-51
2022/09/18 04:58:09;;;;;;;2.83;0.60;;;;;;;10.57;63.27;100595.81;5002200;28;20060;-50
2022/09/18 05:00:37;;;;;;;1.10;0.50;;;;;;;10.57;63.35;100599.25;5006416;28;20050;-52
2022/09/18 05:03:04;;;;;;;1.20;0.50;;;;;;;10.56;62.89;100602.72;5006184;28;20499;-54
2022/09/18 05:05:31;;;;;;;2.33;0.70;;;;;;;10.55;63.05;100600.97;5002404;28;20060;-51
2022/09/18 05:07:59;;;;;;;2.72;0.50;;;;;;;10.56;63.43;100601.81;4999579;28;20120;-50
2022/09/18 05:10:26;;;;;;;1.65;0.65;;;;;;;10.56;63.60;100612.19;5005381;28;20580;-51
2022/09/18 05:12:53;;;;;;;1.63;1.05;;;;;;;10.56;63.64;100607.00;5000051;28;20046;-51
2022/09/18 05:15:20;;;;;;;1.60;0.60;;;;;;;10.57;63.46;100608.75;5005868;28;20797;-50
2022/09/18 05:17:47;;;;;;;5.47;0.52;;;;;;;10.56;63.29;100612.19;5003280;28;20042;-56
2022/09/18 05:20:13;;;;;;;1.10;0.47;;;;;;;10.57;63.60;100599.25;5003030;28;20081;-51
2022/09/18 05:22:45;;;;;;;2.80;0.60;;;;;;;10.58;64.02;100603.59;5001604;28;20044;-48
2022/09/18 05:25:12;;;;;;;1.50;0.60;;;;;;;10.59;63.73;100607.03;5006768;28;20053;-49
2022/09/18 05:27:39;;;;;;;2.47;0.50;;;;;;;10.59;63.85;100604.44;5000526;28;20162;-51
2022/09/18 05:30:06;;;;;;;1.17;0.50;;;;;;;10.59;63.98;100596.66;5003609;28;20140;-49
2022/09/18 05:32:32;;;;;;;1.77;0.50;;;;;;;10.59;63.44;100596.66;5005974;28;20141;-50
2022/09/18 05:34:59;;;;;;;1.17;0.45;;;;;;;10.59;63.68;100601.84;4999373;28;20133;-49
2022/09/18 05:37:26;;;;;;;2.42;0.50;;;;;;;10.59;63.50;100600.13;5001773;28;20060;-50
2022/09/18 05:39:52;;;;;;;2.13;0.50;;;;;;;10.58;63.39;100600.13;5004184;28;20117;-50
2022/09/18 05:42:19;;;;;;;2.63;0.50;;;;;;;10.58;63.43;100603.59;5002355;28;20658;-49
2022/09/18 05:44:46;;;;;;;1.38;0.80;;;;;;;10.58;63.79;100601.00;5005175;28;20137;-49
2022/09/18 05:47:12;;;;;;;5.00;0.80;;;;;;;10.58;63.28;100600.13;5001332;28;20046;-49
2022/09/18 05:49:39;;;;;;;1.30;0.50;;;;;;;10.57;63.39;100603.59;5005333;28;20046;-48
2022/09/18 05:52:05;;;;;;;1.40;0.70;;;;;;;10.58;63.46;100605.31;5002377;28;20137;-51
2022/09/18 05:54:35;;;;;;;5.50;1.60;;;;;;;10.57;63.67;100609.59;5005644;28;20145;-55
2022/09/18 05:57:01;;;;;;;3.47;1.00;;;;;;;10.58;63.53;100605.31;5005916;28;20100;-50
2022/09/18 05:59:28;;;;;;;1.83;0.52;;;;;;;10.57;63.44;100608.75;4998222;28;20074;-52
2022/09/18 06:01:54;;;;;;;2.60;0.75;;;;;;;10.57;63.98;100603.59;5007680;28;20073;-52
2022/09/18 06:04:21;;;;;;;2.13;0.40;;;;;;;10.58;63.89;100610.50;5000564;28;20828;-47
2022/09/18 06:06:47;;;;;;;3.83;1.23;;;;;;;10.60;63.66;100613.97;4999465;28;20494;-49
2022/09/18 06:09:14;;;;;;;7.43;0.70;;;;;;;10.59;63.64;100613.09;5002627;28;20137;-52
2022/09/18 06:11:41;;;;;;;3.33;0.95;;;;;;;10.63;63.52;100613.97;5004192;28;20124;-54
2022/09/18 06:14:07;;;;;;;1.40;0.60;;;;;;;10.66;63.77;100611.41;5002262;28;20052;-51
2022/09/18 06:16:34;;;;;;;4.05;0.95;;;;;;;10.69;63.60;100614.00;5008125;28;20104;-47
2022/09/18 06:19:07;;;;;;;8.88;2.50;;;;;;;10.70;63.73;100607.97;5002882;28;20045;-48
2022/09/18 06:21:34;;;;;;;1.77;0.95;;;;;;;10.72;63.68;100606.25;5001300;28;20076;-52
2022/09/18 06:24:00;;;;;;;3.35;0.90;;;;;;;10.76;64.34;100614.91;5005450;28;20041;-48
2022/09/18 06:26:27;;;;;;;2.05;0.65;;;;;;;10.78;63.70;100605.44;5007904;28;20057;-52
2022/09/18 06:28:53;;;;;;;1.70;0.50;;;;;;;10.79;64.11;100602.84;5006675;28;20654;-49
2022/09/18 06:31:20;;;;;;;2.05;0.45;;;;;;;10.85;63.68;100604.59;4996799;28;20569;-50
2022/09/18 06:33:47;;;;;;;1.40;0.70;;;;;;;10.88;63.53;100599.41;4995919;28;20053;-48
2022/09/18 06:36:15;;;;;;;3.08;1.02;;;;;;;10.93;63.55;100602.91;4996228;28;20442;-51
2022/09/18 06:38:41;;;;;;;1.40;0.60;;;;;;;10.99;64.47;100602.09;5001524;28;20149;-48
2022/09/18 06:41:08;;;;;;;1.00;0.40;;;;;;;11.03;64.39;100598.63;5002253;28;20475;-51
2022/09/18 06:43:35;;;;;;;0.80;0.45;;;;;;;11.09;63.51;100607.28;5008052;28;20149;-53
2022/09/18 06:46:03;;;;;;;2.35;0.50;;;;;;;11.15;63.65;100595.22;5004267;28;20072;-54
2022/09/18 06:48:30;;;;;;;2.15;0.52;;;;;;;11.23;63.57;100600.44;4998040;28;20050;-54
2022/09/18 06:50:58;;;;;;;5.07;1.27;;;;;;;11.30;64.08;100594.41;5002800;28;20072;-53
2022/09/18 06:53:25;;;;;;;1.38;0.60;;;;;;;11.37;64.33;100597.00;5005569;28;20560;-48
2022/09/18 06:55:52;;;;;;;2.08;0.60;;;;;;;11.45;64.18;100605.66;5005406;28;20042;-54
2022/09/18 06:58:19;;;;;;;2.70;0.70;;;;;;;11.54;63.42;100610.91;5003951;28;20045;-51
2022/09/18 07:00:46;;;;;;;1.38;0.50;;;;;;;11.61;64.16;100610.91;4999735;28;20042;-51
2022/09/18 07:03:12;;;;;;;3.80;0.73;;;;;;;11.70;63.67;100608.34;4995895;28;20042;-54
2022/09/18 07:05:41;;;;;;;3.92;0.55;;;;;;;11.78;63.32;100619.59;5004534;28;20053;-51
2022/09/18 07:08:08;;;;;;;2.65;0.52;;;;;;;11.88;64.02;100610.09;4996484;28;20790;-53
2022/09/18 07:10:35;;;;;;;3.03;0.65;;;;;;;12.06;64.07;100619.63;5003205;28;20046;-50
2022/09/18 07:13:02;;;;;;;1.88;0.50;;;;;;;12.52;63.46;100614.41;5005577;28;20045;-48
2022/09/18 07:15:29;;;;;;;3.08;0.65;;;;;;;13.03;61.86;100624.69;5002909;28;20054;-52
2022/09/18 07:17:58;;;;;;;1.35;0.52;;;;;;;13.28;61.51;100621.13;5004158;28;20057;-54
2022/09/18 07:20:25;;;;;;;3.05;0.57;;;;;;;13.46;60.15;100622.75;5002032;28;20144;-53
2022/09/18 07:22:54;;;;;;;1.38;0.57;;;;;;;13.76;60.93;100631.28;5002465;28;20073;-53
2022/09/18 07:25:21;;;;;;;4.45;0.90;;;;;;;14.00;60.38;100624.16;5004522;28;20054;-53
2022/09/18 07:27:48;;;;;;;1.40;0.73;;;;;;;14.17;59.87;100620.56;5001668;28;20138;-49
2022/09/18 07:30:16;;;;;;;0.90;0.47;;;;;;;14.35;59.52;100625.59;4998212;28;20195;-53
2022/09/18 07:32:42;;;;;;;0.85;0.47;;;;;;;14.60;58.67;100625.41;5000390;28;20065;-51
2022/09/18 07:35:09;;;;;;;1.42;0.50;;;;;;;14.85;57.40;100629.50;5001639;28;20105;-57
2022/09/18 07:37:37;;;;;;;0.82;0.20;;;;;;;15.04;57.23;100622.31;5001109;28;20097;-54
2022/09/18 07:40:06;;;;;;;0.95;0.47;;;;;;;15.21;56.64;100629.06;5005071;28;20074;-52
2022/09/18 07:42:32;;;;;;;4.00;0.60;;;;;;;15.34;56.06;100628.06;5005362;28;20038;-53
2022/09/18 07:44:59;;;;;;;2.30;0.50;;;;;;;15.45;56.85;100630.50;5008157;28;20085;-55
2022/09/18 07:47:26;;;;;;;2.22;0.50;;;;;;;15.63;55.96;100634.59;5006935;28;20050;-52
2022/09/18 07:49:53;;;;;;;1.40;0.73;;;;;;;15.99;56.19;100630.63;5011615;28;20046;-47
2022/09/18 07:52:20;;;;;;;2.78;0.75;;;;;;;16.21;55.31;100625.03;5003066;28;20137;-53
2022/09/18 07:54:47;;;;;;;1.30;1.13;;;;;;;16.26;54.46;100628.44;5006901;28;20668;-55
2022/09/18 07:57:13;;;;;;;2.20;0.40;;;;;;;16.22;54.30;100627.63;5006454;28;20100;-50
2022/09/18 07:59:40;;;;;;;0.90;0.50;;;;;;;16.06;55.00;100632.25;5000279;28;20042;-51
2022/09/18 08:02:07;;;;;;;5.82;0.60;;;;;;;15.82;54.80;100634.34;5007031;28;20042;-52
2022/09/18 08:04:33;;;;;;;2.97;0.52;;;;;;;15.59;55.20;100634.66;5010042;28;20050;-56
2022/09/18 08:07:03;;;;;;;5.38;0.57;;;;;;;15.27;55.47;100642.06;5009758;28;20074;-50
2022/09/18 08:09:29;;;;;;;2.28;1.50;;;;;;;15.06;56.13;100633.59;5002130;28;20860;-56
2022/09/18 08:11:56;;;;;;;0.98;0.32;;;;;;;14.81;56.79;100631.28;5010771;28;20133;-51
2022/09/18 08:14:23;;;;;;;1.17;0.60;;;;;;;14.64;57.14;100627.09;5003137;28;20085;-54
2022/09/18 08:16:54;;;;;;;2.05;0.40;;;;;;;14.53;57.71;100628.94;5006564;28;20081;-53
2022/09/18 08:19:21;;;;;;;1.75;0.77;;;;;;;14.43;57.88;100627.28;5004286;28;20054;-52
2022/09/18 08:21:47;;;;;;;1.38;0.73;;;;;;;14.33;57.96;100624.78;5004507;28;20133;-52
2022/09/18 08:24:16;;;;;;;2.05;0.45;;;;;;;14.33;58.24;100630.00;5004535;28;20807;-50
2022/09/18 08:26:43;;;;;;;4.10;0.63;;;;;;;14.33;58.57;100626.50;4999858;28;20050;-55
2022/09/18 08:29:17;;;;;;;4.00;0.52;;;;;;;14.34;58.00;100629.09;5004684;28;20108;-50
2022/09/18 08:31:46;;;;;;;3.90;0.60;;;;;;;14.49;58.87;100627.25;5005047;28;20051;-51
2022/09/18 08:34:12;;;;;;;1.35;0.43;;;;;;;14.62;57.87;100625.34;4999651;28;20050;-53
2022/09/18 08:36:39;;;;;;;2.45;0.50;;;;;;;14.73;58.38;100630.47;5002818;28;20509;-52
2022/09/18 08:39:06;;;;;;;1.10;0.57;;;;;;;14.77;58.08;100633.03;5006414;28;20409;-50
2022/09/18 08:44:16;;;;;;;2.17;0.63;;;;;;;14.86;57.54;100624.25;5057794;27;20375;-49
2022/09/18 08:46:49;;;;;;;1.17;0.52;;;;;;;14.90;57.86;100625.94;5022984;28;20041;-49
2022/09/18 08:52:27;;;;;;;2.30;1.50;;;;;;;15.02;57.65;100631.91;5063178;28;20393;-56
2022/09/18 08:55:18;;;;;;;3.45;1.67;;;;;;;15.12;57.30;100635.25;5047664;28;20049;-51
2022/09/18 08:57:46;;;;;;;1.30;1.20;;;;;;;15.13;57.52;100630.03;5043940;28;20093;-49
2022/09/18 09:24:41;;;;;;;2.40;0.43;;;;;;;15.72;56.94;100636.22;5059424;27;20394;-54
2022/09/18 09:27:22;;;;;;;3.10;0.57;;;;;;;15.70;56.60;100637.13;5028801;28;20114;-54
2022/09/18 09:30:00;;;;;;;1.17;0.60;;;;;;;15.75;57.05;100643.13;5017757;28;20050;-53
2022/09/18 09:32:33;;;;;;;3.60;0.50;;;;;;;16.27;57.04;100646.72;5025070;28;20052;-54
2022/09/18 09:37:46;;;;;;;1.73;0.50;;;;;;;17.98;54.58;100637.19;5107019;27;20369;-53
2022/09/18 09:45:46;;;;;;;1.92;0.75;;;;;;;18.16;51.32;100644.63;5055123;27;20393;-55
2022/09/18 09:48:22;;;;;;;4.57;0.60;;;;;;;17.86;52.18;100647.94;5030544;28;20152;-54
2022/09/18 09:50:55;;;;;;;4.78;0.60;;;;;;;17.63;52.20;100657.19;5037996;28;20627;-53
2022/09/18 09:53:24;;;;;;;1.80;0.43;;;;;;;17.41;52.97;100659.41;5038351;28;20136;-52
2022/09/18 10:01:30;;;;;;;0.82;0.30;;;;;;;16.98;53.57;100648.06;5084650;28;20408;-52
2022/09/18 10:04:24;;;;;;;2.08;0.55;;;;;;;16.79;53.56;100651.03;5042813;28;20076;-56
2022/09/18 10:07:00;;;;;;;3.33;0.30;;;;;;;16.65;53.00;100646.91;5052909;28;20106;-53
2022/09/18 10:09:39;;;;;;;0.73;0.47;;;;;;;16.53;53.41;100652.38;5038206;28;20136;-52
2022/09/18 10:12:31;;;;;;;0.50;0.50;;;;;;;16.32;54.25;100646.63;5041635;28;20141;-55
2022/09/18 10:15:12;;;;;;;0.70;0.30;;;;;;;16.31;54.32;100660.56;5054180;28;20172;-53
2022/09/18 10:17:40;;;;;;;0.75;0.30;;;;;;;16.31;54.41;100668.41;5035456;28;20107;-54
2022/09/18 10:20:15;;;;;;;0.77;0.38;;;;;;;16.31;54.53;100657.97;5042701;28;20047;-53
2022/09/18 10:22:42;;;;;;;0.50;0.45;;;;;;;16.29;55.38;100659.75;5041958;28;20184;-55
2022/09/18 10:25:29;;;;;;;0.50;0.30;;;;;;;16.24;55.07;100656.38;5037776;28;20140;-55
2022/09/18 10:27:55;;;;;;;1.23;0.35;;;;;;;16.28;55.01;100652.81;5034133;28;20048;-55
2022/09/18 10:30:22;;;;;;;0.82;0.40;;;;;;;16.29;55.51;100654.53;5040410;28;20543;-55
2022/09/18 10:32:49;;;;;;;0.93;0.40;;;;;;;16.33;55.62;100650.97;5041363;28;20064;-53
2022/09/18 10:35:37;;;;;;;1.20;0.47;;;;;;;16.40;55.14;100639.53;5041408;28;20637;-56
2022/09/18 10:38:26;;;;;;;1.33;0.63;;;;;;;16.57;54.56;100643.56;5040557;28;20204;-54
2022/09/18 10:40:52;;;;;;;0.65;0.20;;;;;;;16.67;55.04;100639.91;5028427;28;20125;-53
2022/09/18 10:43:19;;;;;;;0.85;0.75;;;;;;;16.75;54.67;100636.28;5038018;28;20053;-52
2022/09/18 10:45:51;;;;;;;2.72;0.38;;;;;;;16.87;54.28;100636.03;5025135;28;20144;-55
2022/09/18 10:48:22;;;;;;;1.10;0.80;;;;;;;16.96;54.14;100645.47;5023979;28;20136;-53
2022/09/18 10:53:37;;;;;;;1.45;0.68;;;;;;;17.12;53.00;100643.44;5062096;27;20382;-52
2022/09/18 10:56:15;;;;;;;1.35;0.50;;;;;;;17.16;53.12;100650.31;5032898;28;20065;-54
2022/09/18 10:58:43;;;;;;;4.55;1.15;;;;;;;17.22;53.12;100636.25;5032887;28;20070;-54
2022/09/18 11:01:11;;;;;;;0.70;0.50;;;;;;;17.26;52.97;100637.06;5005077;28;20104;-53
2022/09/18 11:03:43;;;;;;;0.95;0.82;;;;;;;17.29;53.36;100642.22;4998174;28;20038;-54
2022/09/18 11:06:17;;;;;;;1.27;0.98;;;;;;;17.32;53.37;100642.13;4997778;28;20056;-49
2022/09/18 11:08:48;;;;;;;2.20;0.85;;;;;;;17.41;53.17;100635.84;5002547;28;20553;-52
2022/09/18 11:11:33;;;;;;;2.50;1.05;;;;;;;17.42;52.84;100638.44;5033461;28;20136;-55
2022/09/18 11:14:13;;;;;;;3.83;1.25;;;;;;;17.54;52.47;100646.91;5005142;28;20069;-46
2022/09/18 11:16:42;;;;;;;1.65;1.00;;;;;;;17.63;52.59;100651.94;5006552;28;20133;-49
2022/09/18 11:21:49;;;;;;;3.20;1.08;;;;;;;17.74;51.73;100636.00;5033126;27;20413;-49
2022/09/18 11:24:21;;;;;;;1.85;1.27;;;;;;;17.72;51.78;100643.88;5019613;28;20567;-53
2022/09/18 11:26:50;;;;;;;1.38;0.60;;;;;;;17.62;51.11;100639.75;5024714;28;20733;-50
2022/09/18 11:29:30;;;;;;;1.80;1.58;;;;;;;17.61;51.80;100640.66;5024277;28;20064;-50
2022/09/18 11:34:37;;;;;;;2.70;1.20;;;;;;;17.88;52.21;100630.44;5062192;28;20375;-51
2022/09/18 11:37:07;;;;;;;0.75;0.50;;;;;;;17.89;52.36;100634.75;5019861;28;20045;-49
2022/09/18 11:39:39;;;;;;;0.73;0.43;;;;;;;17.99;52.57;100627.53;5019068;28;20042;-53
2022/09/18 11:42:09;;;;;;;2.13;0.90;;;;;;;18.10;52.17;100637.78;5020119;28;20086;-50
2022/09/18 11:44:36;;;;;;;0.73;0.70;;;;;;;18.21;52.40;100627.88;5016022;28;20547;-48
2022/09/18 11:49:44;;;;;;;2.08;0.28;;;;;;;18.28;51.16;100638.22;5059896;28;20371;-51
2022/09/18 11:52:19;;;;;;;2.47;0.45;;;;;;;18.26;51.17;100629.53;5012536;28;20585;-51
2022/09/18 11:55:02;;;;;;;1.08;0.40;;;;;;;18.19;51.37;100629.72;5015526;28;20053;-51
2022/09/18 11:57:37;;;;;;;1.30;0.22;;;;;;;18.27;51.31;100631.28;5020769;28;20154;-50
2022/09/18 12:00:19;;;;;;;1.77;0.70;;;;;;;18.34;51.26;100628.44;5015396;28;20141;-53
2022/09/18 12:19:10;;;;;;;1.27;0.75;;;;;;;18.40;50.90;100632.66;5026128;28;20416;-53
2022/09/18 12:21:45;;;;;;;3.13;0.38;;;;;;;18.39;50.22;100636.19;5021372;28;20065;-50
2022/09/18 12:24:14;;;;;;;1.52;0.45;;;;;;;18.28;50.25;100628.63;5023554;28;20100;-51
2022/09/18 12:46:26;;;;;;;3.85;0.40;;;;;;;16.99;55.60;100657.63;5062913;27;20393;-52
2022/09/18 12:59:54;;;;;;;6.57;1.30;;;;;;;16.94;56.73;100661.19;5090109;27;20383;-49
2022/09/18 13:02:38;;;;;;;1.30;0.80;;;;;;;16.96;55.96;100648.94;5062346;28;20500;-49
2022/09/18 13:07:55;;;;;;;1.20;0.95;;;;;;;17.16;56.16;100644.25;5046132;28;20376;-51
2022/09/18 13:10:43;;;;;;;1.13;0.77;;;;;;;17.23;56.23;100647.59;5066042;28;20045;-51
2022/09/18 13:15:54;;;;;;;4.88;2.15;;;;;;;17.43;54.59;100642.78;5039029;27;20453;-54
2022/09/18 13:21:03;;;;;;;0.77;0.50;;;;;;;17.52;55.53;100632.97;5079465;27;20395;-54
2022/09/18 13:23:36;;;;;;;1.00;0.40;;;;;;;17.53;55.09;100621.63;5064316;28;20048;-49
2022/09/18 13:26:06;;;;;;;1.33;0.73;;;;;;;17.64;54.90;100634.47;5095571;28;20040;-52
2022/09/18 13:28:33;;;;;;;1.00;0.60;;;;;;;17.71;55.22;100623.84;5077787;28;20055;-48
2022/09/18 13:31:26;;;;;;;1.00;0.68;;;;;;;17.82;55.17;100625.31;5056666;28;20136;-51
2022/09/18 13:36:36;;;;;;;1.67;0.88;;;;;;;18.27;53.41;100618.16;5034507;27;20410;-54
2022/09/18 13:39:14;;;;;;;2.80;1.35;;;;;;;18.19;53.62;100613.97;5024169;28;20128;-51
2022/09/18 13:41:45;;;;;;;1.55;1.40;;;;;;;18.22;53.97;100613.91;5023738;28;20136;-51
2022/09/18 13:44:18;;;;;;;2.15;1.85;;;;;;;18.26;52.79;100616.41;5026102;28;20141;-51
2022/09/18 13:46:47;;;;;;;3.17;1.75;;;;;;;18.33;53.06;100620.59;5020045;28;20148;-52
2022/09/18 13:49:19;;;;;;;2.15;1.42;;;;;;;18.41;53.36;100634.38;5025902;28;20041;-50
2022/09/18 13:51:46;;;;;;;1.58;1.48;;;;;;;18.46;52.56;100619.41;5025021;28;20125;-51
2022/09/18 14:00:05;;;;;;;0.43;0.20;;;;;;;18.34;51.98;100628.44;5047519;27;20396;-50
2022/09/18 14:05:33;;;;;;;1.42;0.52;;;;;;;18.31;51.73;100625.06;5055426;27;20388;-53
2022/09/18 14:08:22;;;;;;;1.10;0.63;;;;;;;18.35;51.89;100629.31;5025731;28;20137;-51